createdAt,value
2019-05-23T00:00:34.866Z,15.00
2019-05-23T00:05:03.630Z,15.06
2019-05-23T00:09:23.660Z,15.11
2019-05-23T00:13:43.530Z,15.07
2019-05-23T00:17:48.786Z,15.03
2019-05-23T00:21:52.765Z,15.02
2019-05-23T00:25:55.476Z,15.00
2019-05-23T00:29:59.105Z,14.98
2019-05-23T00:34:02.860Z,14.99
2019-05-23T00:38:05.975Z,15.06
2019-05-23T00:42:07.837Z,15.14
2019-05-23T00:46:10.067Z,15.19
2019-05-23T00:50:13.026Z,15.19
2019-05-23T00:54:16.147Z,15.22
2019-05-23T00:58:19.404Z,15.24
2019-05-23T01:02:21.398Z,15.17
2019-05-23T01:06:23.818Z,15.10
2019-05-23T01:10:26.017Z,15.01
2019-05-23T01:14:28.856Z,15.04
2019-05-23T01:18:31.150Z,14.99
2019-05-23T01:22:33.300Z,15.04
2019-05-23T01:26:35.861Z,15.12
2019-05-23T01:30:43.465Z,15.20
2019-05-23T01:34:46.369Z,15.25
2019-05-23T01:38:48.288Z,15.29
2019-05-23T01:42:51.649Z,15.29
2019-05-23T01:46:53.709Z,15.33
2019-05-23T01:50:57.802Z,15.37
2019-05-23T01:55:00.559Z,15.38
2019-05-23T01:59:02.909Z,15.40
2019-05-23T02:03:05.009Z,15.41
2019-05-23T02:07:07.459Z,15.42
2019-05-23T02:11:10.854Z,15.42
2019-05-23T02:15:14.211Z,15.43
2019-05-23T02:19:16.649Z,15.40
2019-05-23T02:23:20.011Z,15.36
2019-05-23T02:27:23.370Z,15.30
2019-05-23T02:31:25.356Z,15.24
2019-05-23T02:35:27.410Z,15.20
2019-05-23T02:39:37.096Z,15.20
2019-05-23T02:43:44.855Z,15.18
2019-05-23T02:47:51.389Z,15.15
2019-05-23T02:51:56.744Z,15.19
2019-05-23T02:56:01.866Z,15.20
2019-05-23T03:00:19.233Z,15.21
2019-05-23T03:04:25.155Z,15.22
2019-05-23T03:08:29.097Z,15.21
2019-05-23T03:12:32.034Z,15.22
2019-05-23T03:16:36.392Z,15.24
2019-05-23T03:20:39.069Z,15.24
2019-05-23T03:24:42.335Z,15.24
2019-05-23T03:28:44.211Z,15.23
2019-05-23T03:32:50.153Z,15.22
2019-05-23T03:36:53.356Z,15.22
2019-05-23T03:41:00.622Z,15.23
2019-05-23T03:45:07.362Z,15.25
2019-05-23T03:49:11.583Z,15.33
2019-05-23T03:53:13.586Z,15.41
2019-05-23T03:57:17.085Z,15.54
2019-05-23T04:01:22.572Z,15.55
2019-05-23T04:05:25.927Z,15.57
2019-05-23T04:09:28.105Z,15.58
2019-05-23T04:13:30.741Z,15.62
2019-05-23T04:17:32.651Z,15.71
2019-05-23T04:21:34.507Z,15.72
2019-05-23T04:25:37.354Z,15.75
2019-05-23T04:29:39.286Z,15.72
2019-05-23T04:33:41.204Z,15.66
2019-05-23T04:37:45.042Z,15.60
2019-05-23T04:41:46.945Z,15.56
2019-05-23T04:45:48.889Z,15.60
2019-05-23T04:49:50.709Z,15.63
2019-05-23T04:53:54.850Z,15.63
2019-05-23T04:57:56.658Z,15.65
2019-05-23T05:01:59.018Z,15.56
2019-05-23T05:06:02.053Z,15.54
2019-05-23T05:10:04.269Z,15.47
2019-05-23T05:14:06.801Z,15.41
2019-05-23T05:18:09.426Z,15.36
2019-05-23T05:22:11.369Z,15.24
2019-05-23T05:26:20.532Z,15.08
2019-05-23T05:30:23.185Z,14.98
2019-05-23T05:34:25.119Z,14.93
2019-05-23T05:38:28.981Z,14.94
2019-05-23T05:42:32.473Z,14.93
2019-05-23T05:46:34.601Z,14.97
2019-05-23T05:50:36.742Z,15.09
2019-05-23T05:54:38.611Z,15.23
2019-05-23T05:58:40.387Z,15.34
2019-05-23T06:02:42.938Z,15.19
2019-05-23T06:06:52.389Z,15.07
2019-05-23T06:10:54.770Z,14.94
2019-05-23T06:14:56.708Z,14.80
2019-05-23T06:18:58.891Z,14.69
2019-05-23T06:23:01.319Z,14.58
2019-05-23T06:27:04.065Z,14.44
2019-05-23T06:31:06.579Z,14.29
2019-05-23T06:35:08.829Z,14.09
2019-05-23T06:39:12.595Z,14.03
2019-05-23T06:43:14.713Z,13.89
2019-05-23T06:47:17.829Z,13.81
2019-05-23T06:51:20.230Z,13.88
2019-05-23T06:55:22.166Z,13.86
2019-05-23T06:59:24.150Z,13.94
2019-05-23T07:03:41.460Z,13.92
2019-05-23T07:07:32.641Z,13.92
2019-05-23T07:11:34.550Z,14.04
2019-05-23T07:15:36.346Z,14.18
2019-05-23T07:19:38.085Z,14.28
2019-05-23T07:23:40.037Z,14.36
2019-05-23T07:27:42.719Z,14.45
2019-05-23T07:31:44.783Z,14.36
2019-05-23T07:35:46.646Z,14.31
2019-05-23T07:39:49.418Z,14.40
2019-05-23T07:43:52.163Z,14.43
2019-05-23T07:47:54.663Z,14.51
2019-05-23T07:51:56.404Z,14.55
2019-05-23T07:56:00.087Z,14.51
2019-05-23T08:00:04.066Z,14.51
2019-05-23T08:04:20.709Z,14.46
2019-05-23T08:08:10.199Z,14.46
2019-05-23T08:12:12.183Z,14.46
2019-05-23T08:16:15.109Z,14.58
2019-05-23T08:20:18.409Z,14.80
2019-05-23T08:24:20.447Z,14.84
2019-05-23T08:28:23.307Z,14.98
2019-05-23T08:32:25.159Z,15.23
2019-05-23T08:36:27.036Z,15.43
2019-05-23T08:40:39.644Z,15.46
2019-05-23T08:44:41.700Z,15.47
2019-05-23T08:48:44.195Z,15.56
2019-05-23T08:52:46.403Z,15.55
2019-05-23T08:56:48.150Z,15.26
2019-05-23T09:00:50.309Z,15.16
2019-05-23T09:05:04.225Z,15.15
2019-05-23T09:08:56.658Z,15.12
2019-05-23T09:13:02.870Z,15.25
2019-05-23T09:17:06.081Z,15.21
2019-05-23T09:21:09.064Z,15.24
2019-05-23T09:25:11.772Z,15.24
2019-05-23T09:29:14.318Z,15.25
2019-05-23T09:33:16.865Z,15.27
2019-05-23T09:37:19.451Z,15.43
2019-05-23T09:41:21.687Z,15.35
2019-05-23T09:45:23.907Z,15.16
2019-05-23T09:49:26.151Z,15.13
2019-05-23T09:53:28.575Z,15.06
2019-05-23T09:57:31.231Z,15.02
2019-05-23T10:01:33.428Z,15.02
2019-05-23T10:05:43.405Z,15.01
2019-05-23T10:09:41.275Z,14.94
2019-05-23T10:13:43.385Z,14.77
2019-05-23T10:17:45.705Z,14.64
2019-05-23T10:21:47.907Z,15.01
2019-05-23T10:25:50.077Z,16.26
2019-05-23T10:29:52.395Z,17.80
2019-05-23T10:33:54.350Z,17.95
2019-05-23T10:37:56.540Z,17.66
2019-05-23T10:41:59.813Z,17.43
2019-05-23T10:46:02.075Z,16.80
2019-05-23T10:50:08.162Z,16.43
2019-05-23T10:54:10.467Z,16.11
2019-05-23T10:58:13.369Z,15.98
2019-05-23T11:02:16.337Z,15.95
2019-05-23T11:06:18.624Z,16.02
2019-05-23T11:10:22.165Z,16.04
2019-05-23T11:14:24.559Z,15.89
2019-05-23T11:18:26.653Z,15.97
2019-05-23T11:22:29.112Z,16.21
2019-05-23T11:26:31.125Z,16.17
2019-05-23T11:30:45.999Z,15.91
2019-05-23T11:34:48.085Z,15.76
2019-05-23T11:38:50.310Z,15.74
2019-05-23T11:42:52.948Z,15.73
2019-05-23T11:46:55.626Z,15.80
2019-05-23T11:50:59.170Z,15.75
2019-05-23T11:55:01.412Z,15.93
2019-05-23T11:59:05.124Z,16.16
2019-05-23T12:03:09.478Z,16.44
2019-05-23T12:07:22.229Z,16.80
2019-05-23T12:11:24.536Z,16.88
2019-05-23T12:15:28.751Z,17.11
2019-05-23T12:19:31.118Z,17.32
2019-05-23T12:23:33.375Z,17.49
2019-05-23T12:27:35.829Z,17.63
2019-05-23T12:31:38.156Z,17.77
2019-05-23T12:35:40.413Z,18.39
2019-05-23T12:39:43.630Z,18.40
2019-05-23T12:43:46.074Z,18.46
2019-05-23T12:47:56.654Z,18.42
2019-05-23T12:52:01.364Z,18.81
2019-05-23T12:56:04.204Z,19.17
2019-05-23T13:00:09.200Z,19.54
2019-05-23T13:04:11.803Z,18.94
2019-05-23T13:08:16.751Z,18.35
2019-05-23T13:12:19.247Z,17.85
2019-05-23T13:16:21.528Z,17.58
2019-05-23T13:20:24.249Z,17.39
2019-05-23T13:24:26.439Z,17.46
2019-05-23T13:28:28.850Z,17.62
2019-05-23T13:32:31.020Z,17.91
2019-05-23T13:36:33.439Z,18.39
2019-05-23T13:40:36.646Z,18.74
2019-05-23T13:44:39.294Z,18.16
2019-05-23T13:48:41.881Z,17.65
2019-05-23T13:52:45.712Z,17.40
2019-05-23T13:56:48.225Z,17.32
2019-05-23T14:00:50.705Z,17.26
2019-05-23T14:04:52.965Z,17.22
2019-05-23T14:08:56.284Z,16.88
2019-05-23T14:12:58.590Z,16.72
2019-05-23T14:17:18.347Z,16.70
2019-05-23T14:21:20.511Z,16.74
2019-05-23T14:25:23.438Z,16.86
2019-05-23T14:29:25.630Z,16.88
2019-05-23T14:33:47.043Z,16.93
2019-05-23T14:37:52.659Z,17.00
2019-05-23T14:42:00.586Z,17.50
2019-05-23T14:46:08.735Z,17.71
2019-05-23T14:50:32.255Z,17.97
2019-05-23T14:54:45.545Z,18.50
2019-05-23T14:58:48.414Z,18.91
2019-05-23T15:02:50.823Z,19.99
2019-05-23T15:06:53.008Z,21.93
2019-05-23T15:10:55.199Z,22.64
2019-05-23T15:14:57.402Z,20.16
2019-05-23T15:18:59.518Z,20.81
2019-05-23T15:23:01.518Z,20.01
2019-05-23T15:27:03.915Z,21.23
2019-05-23T15:31:06.461Z,22.52
2019-05-23T15:35:08.283Z,23.23
2019-05-23T15:39:11.027Z,22.41
2019-05-23T15:43:12.862Z,22.42
2019-05-23T15:47:14.943Z,22.46
2019-05-23T15:51:21.056Z,21.23
2019-05-23T15:55:45.169Z,18.92
2019-05-23T16:00:09.597Z,17.76
2019-05-23T16:04:13.848Z,17.10
2019-05-23T16:08:15.864Z,16.63
2019-05-23T16:12:18.016Z,15.98
2019-05-23T16:16:19.910Z,15.51
2019-05-23T16:20:22.347Z,15.17
2019-05-23T16:24:24.458Z,15.01
2019-05-23T16:28:26.558Z,14.96
2019-05-23T16:32:28.383Z,14.79
2019-05-23T16:36:30.817Z,14.58
2019-05-23T16:40:33.136Z,14.45
2019-05-23T16:44:35.280Z,14.36
2019-05-23T16:48:38.662Z,14.46
2019-05-23T16:52:41.162Z,14.66
2019-05-23T16:56:56.963Z,14.75
2019-05-23T17:01:20.334Z,14.88
2019-05-23T17:05:30.922Z,14.84
2019-05-23T17:10:06.911Z,14.75
2019-05-23T17:14:02.168Z,14.42
2019-05-23T17:18:32.647Z,13.98
2019-05-23T17:23:00.960Z,13.64
2019-05-23T17:27:08.805Z,13.51
2019-05-23T17:31:16.255Z,13.22
2019-05-23T17:35:18.612Z,12.91
2019-05-23T17:39:21.028Z,12.67
2019-05-23T17:43:23.388Z,12.60
2019-05-23T17:47:25.897Z,12.37
2019-05-23T17:51:28.263Z,12.38
2019-05-23T17:55:32.176Z,12.20
2019-05-23T17:59:34.388Z,12.10
2019-05-23T18:03:37.925Z,11.94
2019-05-23T18:07:41.845Z,11.80
2019-05-23T18:11:44.020Z,11.66
2019-05-23T18:15:46.247Z,11.48
2019-05-23T18:19:48.372Z,11.33
2019-05-23T18:23:50.812Z,11.15
2019-05-23T18:27:53.525Z,11.03
2019-05-23T18:31:56.231Z,10.81
2019-05-23T18:35:58.929Z,10.70
2019-05-23T18:40:01.136Z,10.64
2019-05-23T18:44:03.605Z,10.42
2019-05-23T18:48:08.558Z,10.32
2019-05-23T18:52:11.207Z,10.23
2019-05-23T18:56:13.422Z,10.09
2019-05-23T19:00:17.721Z,10.01
2019-05-23T19:04:20.785Z,9.94
2019-05-23T19:08:23.630Z,9.95
2019-05-23T19:12:26.259Z,9.95
2019-05-23T19:16:29.299Z,9.94
2019-05-23T19:20:31.863Z,9.90
2019-05-23T19:24:34.486Z,9.82
2019-05-23T19:28:37.440Z,9.82
2019-05-23T19:32:39.481Z,9.80
2019-05-23T19:36:41.922Z,9.82
2019-05-23T19:40:45.121Z,9.81
2019-05-23T19:44:47.337Z,9.82
2019-05-23T19:48:50.219Z,9.79
2019-05-23T19:52:52.726Z,9.77
2019-05-23T19:56:54.893Z,9.72
2019-05-23T20:00:57.243Z,9.67
2019-05-23T20:05:03.575Z,9.64
2019-05-23T20:09:11.237Z,9.55
2019-05-23T20:13:13.575Z,9.54
2019-05-23T20:17:16.123Z,9.55
2019-05-23T20:21:18.553Z,9.52
2019-05-23T20:25:20.782Z,9.52
2019-05-23T20:29:22.895Z,9.54
2019-05-23T20:33:26.051Z,9.56
2019-05-23T20:37:30.338Z,9.58
2019-05-23T20:41:32.669Z,9.59
2019-05-23T20:45:35.072Z,9.65
2019-05-23T20:49:37.468Z,9.63
2019-05-23T20:53:39.567Z,9.58
2019-05-23T20:57:41.780Z,9.63
2019-05-23T21:01:44.489Z,9.63
2019-05-23T21:05:47.023Z,9.63
2019-05-23T21:09:49.261Z,9.62
2019-05-23T21:13:51.719Z,9.64
2019-05-23T21:17:53.878Z,9.65
2019-05-23T21:21:56.059Z,9.60
2019-05-23T21:26:02.598Z,9.59
2019-05-23T21:30:05.056Z,9.56
2019-05-23T21:34:07.670Z,9.52
2019-05-23T21:38:10.233Z,9.49
2019-05-23T21:42:12.754Z,9.51
2019-05-23T21:46:15.324Z,9.53
2019-05-23T21:50:17.532Z,9.53
2019-05-23T21:54:19.964Z,9.52
2019-05-23T21:58:21.984Z,9.50
2019-05-23T22:02:30.507Z,9.51
2019-05-23T22:06:33.842Z,9.50
2019-05-23T22:10:37.685Z,9.51
2019-05-23T22:14:39.837Z,9.50
2019-05-23T22:18:42.045Z,9.50
2019-05-23T22:22:44.187Z,9.50
2019-05-23T22:26:46.419Z,9.50
2019-05-23T22:30:48.615Z,9.51
2019-05-23T22:35:01.455Z,9.43
2019-05-23T22:39:03.765Z,9.46
2019-05-23T22:43:20.197Z,9.45
2019-05-23T22:47:09.749Z,9.44
2019-05-23T22:51:11.756Z,9.43
2019-05-23T22:55:14.004Z,9.40
2019-05-23T22:59:16.132Z,9.39
2019-05-23T23:03:18.387Z,9.38
2019-05-23T23:07:20.662Z,9.38
2019-05-23T23:11:23.201Z,9.36
2019-05-23T23:15:28.001Z,9.36
2019-05-23T23:19:30.317Z,9.34
2019-05-23T23:23:32.476Z,9.35
2019-05-23T23:27:34.758Z,9.34
2019-05-23T23:31:38.023Z,9.32
2019-05-23T23:35:40.104Z,9.32
2019-05-23T23:39:42.295Z,9.32
2019-05-23T23:43:58.871Z,9.31
2019-05-23T23:48:05.982Z,9.30
2019-05-23T23:52:25.948Z,9.32
2019-05-23T23:56:46.053Z,9.31
